createdAt,value
2023-02-13T00:00:47.892Z,11.70
2023-02-13T00:03:14.862Z,12.00
2023-02-13T00:05:41.213Z,11.48
2023-02-13T00:08:07.595Z,10.27
2023-02-13T00:10:33.977Z,11.02
2023-02-13T00:13:00.337Z,10.73
2023-02-13T00:15:28.068Z,10.68
2023-02-13T00:17:54.519Z,10.30
2023-02-13T00:20:21.137Z,9.95
2023-02-13T00:22:47.482Z,10.38
2023-02-13T00:25:14.039Z,10.85
2023-02-13T00:27:40.379Z,11.75
2023-02-13T00:30:08.041Z,11.52
2023-02-13T00:32:35.764Z,11.43
2023-02-13T00:35:02.126Z,10.35
2023-02-13T00:37:28.490Z,11.10
2023-02-13T00:39:54.836Z,11.98
2023-02-13T00:42:21.146Z,10.68
2023-02-13T00:44:47.489Z,10.10
2023-02-13T00:47:13.876Z,9.27
2023-02-13T00:49:41.581Z,10.40
2023-02-13T00:52:07.933Z,9.65
2023-02-13T00:54:34.432Z,9.77
2023-02-13T00:57:00.813Z,11.07
2023-02-13T00:59:27.227Z,11.10
2023-02-13T01:01:53.861Z,11.07
2023-02-13T01:04:20.244Z,10.77
2023-02-13T01:06:48.004Z,10.88
2023-02-13T01:09:14.465Z,10.82
2023-02-13T01:11:40.858Z,11.52
2023-02-13T01:14:07.319Z,12.27
2023-02-13T01:16:33.738Z,12.93
2023-02-13T01:19:00.229Z,13.23
2023-02-13T01:21:26.582Z,12.25
2023-02-13T01:23:54.317Z,12.98
2023-02-13T01:26:23.309Z,12.50
2023-02-13T01:28:52.806Z,12.20
2023-02-13T01:31:19.246Z,13.95
2023-02-13T01:33:46.060Z,12.77
2023-02-13T01:36:13.563Z,14.00
2023-02-13T01:38:41.052Z,13.27
2023-02-13T01:41:09.976Z,13.90
2023-02-13T01:43:48.390Z,14.10
2023-02-13T01:46:18.277Z,12.02
2023-02-13T01:48:46.696Z,14.10
2023-02-13T01:51:18.241Z,13.48
2023-02-13T01:53:48.177Z,14.30
2023-02-13T01:56:21.766Z,13.43
2023-02-13T01:58:50.975Z,14.75
2023-02-13T02:01:17.512Z,14.07
2023-02-13T02:03:49.249Z,13.27
2023-02-13T02:06:34.070Z,14.48
2023-02-13T02:09:05.418Z,14.82
2023-02-13T02:11:39.573Z,14.27
2023-02-13T02:14:06.101Z,13.18
2023-02-13T02:16:32.495Z,13.18
2023-02-13T02:19:01.154Z,14.73
2023-02-13T02:21:51.080Z,13.00
2023-02-13T02:24:34.100Z,13.82
2023-02-13T02:27:33.075Z,12.90
2023-02-13T02:30:26.774Z,14.10
2023-02-13T02:33:12.506Z,13.93
2023-02-13T02:35:51.938Z,13.65
2023-02-13T02:38:31.697Z,12.82
2023-02-13T02:41:06.959Z,12.60
2023-02-13T02:43:52.943Z,13.15
2023-02-13T02:46:27.227Z,12.57
2023-02-13T02:49:03.482Z,11.90
2023-02-13T02:51:38.385Z,13.52
2023-02-13T02:54:10.630Z,12.68
2023-02-13T02:56:41.809Z,12.73
2023-02-13T02:59:12.149Z,12.77
2023-02-13T03:01:40.538Z,12.93
2023-02-13T03:04:16.594Z,12.98
2023-02-13T03:06:48.873Z,13.65
2023-02-13T03:09:20.107Z,12.48
2023-02-13T03:11:50.489Z,12.38
2023-02-13T03:14:20.384Z,13.88
2023-02-13T03:16:48.079Z,13.75
2023-02-13T03:19:26.002Z,12.55
2023-02-13T03:21:58.259Z,12.82
2023-02-13T03:24:32.900Z,13.88
2023-02-13T03:27:04.927Z,12.23
2023-02-13T03:29:43.490Z,13.05
2023-02-13T03:32:15.623Z,12.68
2023-02-13T03:34:51.987Z,12.00
2023-02-13T03:37:22.390Z,12.82
2023-02-13T03:39:57.724Z,13.13
2023-02-13T03:42:31.669Z,12.70
2023-02-13T03:45:02.337Z,10.65
2023-02-13T03:47:28.746Z,11.98
2023-02-13T03:49:56.567Z,12.73
2023-02-13T03:52:27.078Z,12.63
2023-02-13T03:54:58.089Z,12.10
2023-02-13T03:57:27.165Z,12.23
2023-02-13T03:59:57.207Z,12.38
2023-02-13T04:02:30.264Z,12.07
2023-02-13T04:05:08.102Z,13.32
2023-02-13T04:07:34.679Z,11.07
2023-02-13T04:10:04.534Z,11.73
2023-02-13T04:12:39.229Z,10.57
2023-02-13T04:15:12.627Z,12.15
2023-02-13T04:17:44.612Z,11.07
2023-02-13T04:20:13.024Z,12.35
2023-02-13T04:22:42.684Z,11.30
2023-02-13T04:25:10.613Z,11.52
2023-02-13T04:27:37.006Z,11.80
2023-02-13T04:30:04.185Z,11.35
2023-02-13T04:32:30.592Z,11.77
2023-02-13T04:34:56.961Z,11.75
2023-02-13T04:37:24.654Z,11.90
2023-02-13T04:39:51.066Z,10.75
2023-02-13T04:42:17.429Z,10.75
2023-02-13T04:44:43.790Z,10.23
2023-02-13T04:47:11.148Z,10.05
2023-02-13T04:49:37.506Z,10.32
2023-02-13T04:52:04.024Z,11.02
2023-02-13T04:54:31.777Z,10.15
2023-02-13T04:56:58.158Z,10.50
2023-02-13T04:59:24.607Z,9.45
2023-02-13T05:01:51.045Z,10.07
2023-02-13T05:04:17.521Z,11.40
2023-02-13T05:06:43.943Z,11.15
2023-02-13T05:09:10.726Z,10.80
2023-02-13T05:11:38.393Z,10.30
2023-02-13T05:14:04.747Z,9.68
2023-02-13T05:16:31.230Z,9.93
2023-02-13T05:18:57.569Z,9.73
2023-02-13T05:21:23.981Z,9.32
2023-02-13T05:23:50.389Z,9.18
2023-02-13T05:26:16.769Z,10.02
2023-02-13T05:28:44.444Z,9.57
2023-02-13T05:31:11.058Z,9.13
2023-02-13T05:33:37.606Z,8.52
2023-02-13T05:36:04.614Z,9.10
2023-02-13T05:38:31.073Z,9.02
2023-02-13T05:40:59.051Z,8.48
2023-02-13T05:43:25.700Z,8.50
2023-02-13T05:46:01.266Z,9.60
2023-02-13T05:48:27.647Z,10.38
2023-02-13T05:50:54.101Z,8.98
2023-02-13T05:53:20.505Z,10.13
2023-02-13T05:55:46.872Z,9.10
2023-02-13T05:58:13.225Z,9.68
2023-02-13T06:00:39.772Z,9.30
2023-02-13T06:03:07.434Z,8.95
2023-02-13T06:05:33.816Z,8.35
2023-02-13T06:08:00.184Z,8.80
2023-02-13T06:10:26.602Z,7.82
2023-02-13T06:12:52.957Z,8.15
2023-02-13T06:15:20.380Z,8.00
2023-02-13T06:17:46.740Z,8.00
2023-02-13T06:20:14.659Z,8.68
2023-02-13T06:22:41.048Z,7.95
2023-02-13T06:25:07.777Z,7.75
2023-02-13T06:27:34.125Z,8.32
2023-02-13T06:30:00.614Z,7.80
2023-02-13T06:32:26.972Z,8.32
2023-02-13T06:34:53.321Z,8.27
2023-02-13T06:37:21.017Z,9.15
2023-02-13T06:39:47.362Z,9.20
2023-02-13T06:42:13.752Z,8.32
2023-02-13T06:44:40.102Z,8.38
2023-02-13T06:47:06.568Z,9.15
2023-02-13T06:49:32.921Z,8.50
2023-02-13T06:51:59.297Z,7.78
2023-02-13T06:54:44.662Z,8.63
2023-02-13T06:57:13.047Z,8.43
2023-02-13T06:59:39.407Z,8.25
2023-02-13T07:02:05.796Z,8.00
2023-02-13T07:04:32.187Z,7.72
2023-02-13T07:06:58.540Z,7.20
2023-02-13T07:09:24.932Z,8.23
2023-02-13T07:11:52.768Z,9.55
2023-02-13T07:14:19.172Z,7.95
2023-02-13T07:16:45.523Z,8.02
2023-02-13T07:19:11.926Z,8.90
2023-02-13T07:21:38.300Z,7.63
2023-02-13T07:24:07.157Z,7.50
2023-02-13T07:26:34.412Z,6.65
2023-02-13T07:29:10.793Z,7.32
2023-02-13T07:31:38.132Z,7.05
2023-02-13T07:34:04.610Z,7.20
2023-02-13T07:36:30.970Z,7.93
2023-02-13T07:38:57.353Z,7.97
2023-02-13T07:41:23.734Z,8.50
2023-02-13T07:43:50.084Z,8.73
2023-02-13T07:46:17.874Z,8.38
2023-02-13T07:48:44.350Z,7.88
2023-02-13T07:51:10.730Z,7.95
2023-02-13T07:53:37.084Z,8.25
2023-02-13T07:56:07.424Z,7.75
2023-02-13T07:58:33.834Z,7.63
2023-02-13T08:01:06.077Z,8.57
2023-02-13T08:03:33.836Z,8.40
2023-02-13T08:06:00.305Z,7.60
2023-02-13T08:08:26.799Z,8.05
2023-02-13T08:10:53.420Z,8.13
2023-02-13T08:13:19.914Z,8.98
2023-02-13T08:15:46.495Z,9.02
2023-02-13T08:18:13.028Z,7.38
2023-02-13T08:20:40.705Z,8.32
2023-02-13T08:23:10.777Z,7.97
2023-02-13T08:25:38.129Z,8.52
2023-02-13T08:28:04.993Z,7.97
2023-02-13T08:30:31.677Z,7.93
2023-02-13T08:32:58.040Z,7.72
2023-02-13T08:35:24.577Z,7.63
2023-02-13T08:37:52.424Z,8.48
2023-02-13T08:40:19.037Z,8.05
2023-02-13T08:42:45.382Z,7.22
2023-02-13T08:45:12.186Z,7.47
2023-02-13T08:47:38.995Z,6.95
2023-02-13T08:50:06.683Z,7.90
2023-02-13T08:52:34.119Z,7.78
2023-02-13T08:55:01.862Z,6.80
2023-02-13T08:57:28.197Z,6.75
2023-02-13T08:59:54.556Z,6.88
2023-02-13T09:02:20.931Z,7.35
2023-02-13T09:04:47.312Z,7.07
2023-02-13T09:07:13.709Z,7.28
2023-02-13T09:09:40.059Z,7.35
2023-02-13T09:12:07.751Z,8.02
2023-02-13T09:14:34.256Z,6.60
2023-02-13T09:17:00.631Z,6.88
2023-02-13T09:19:26.998Z,7.10
2023-02-13T09:21:53.354Z,7.10
2023-02-13T09:24:19.701Z,6.85
2023-02-13T09:26:46.111Z,7.45
2023-02-13T09:29:13.913Z,7.32
2023-02-13T09:31:40.404Z,6.65
2023-02-13T09:34:06.850Z,7.05
2023-02-13T09:36:33.214Z,6.53
2023-02-13T09:38:59.978Z,6.95
2023-02-13T09:41:29.113Z,7.50
2023-02-13T09:43:58.804Z,7.00
2023-02-13T09:46:31.933Z,7.03
2023-02-13T09:49:01.592Z,6.82
2023-02-13T09:51:28.801Z,6.55
2023-02-13T09:53:57.751Z,7.13
2023-02-13T09:56:39.650Z,7.20
2023-02-13T09:59:15.305Z,6.63
2023-02-13T10:01:48.167Z,7.13
2023-02-13T10:04:26.063Z,6.37
2023-02-13T10:07:02.174Z,7.28
2023-02-13T10:09:35.345Z,7.28
2023-02-13T10:12:17.476Z,7.15
2023-02-13T10:14:54.331Z,6.18
2023-02-13T10:17:28.655Z,7.82
2023-02-13T10:19:59.644Z,6.80
2023-02-13T10:22:30.848Z,7.15
2023-02-13T10:25:02.575Z,6.63
2023-02-13T10:27:34.261Z,6.15
2023-02-13T10:30:04.976Z,6.88
2023-02-13T10:32:42.045Z,6.75
2023-02-13T10:35:19.160Z,6.05
2023-02-13T10:37:48.480Z,5.93
2023-02-13T10:40:15.005Z,5.60
2023-02-13T10:42:44.735Z,7.68
2023-02-13T10:45:31.527Z,5.88
2023-02-13T10:48:08.978Z,6.32
2023-02-13T10:50:43.058Z,6.32
2023-02-13T10:53:18.332Z,5.65
2023-02-13T10:56:00.152Z,6.10
2023-02-13T10:58:38.781Z,6.50
2023-02-13T11:01:09.594Z,5.88
2023-02-13T11:03:37.274Z,5.90
2023-02-13T11:06:07.853Z,6.57
2023-02-13T11:08:38.708Z,5.95
2023-02-13T11:11:28.338Z,5.82
2023-02-13T11:14:08.506Z,5.93
2023-02-13T11:16:40.312Z,6.32
2023-02-13T11:19:16.884Z,5.78
2023-02-13T11:21:43.783Z,7.25
2023-02-13T11:24:18.607Z,6.22
2023-02-13T11:26:50.037Z,5.93
2023-02-13T11:29:18.679Z,5.00
2023-02-13T11:31:45.402Z,6.05
2023-02-13T11:34:26.506Z,5.85
2023-02-13T11:36:54.335Z,5.70
2023-02-13T11:39:22.615Z,6.45
2023-02-13T11:41:49.875Z,5.97
2023-02-13T11:44:25.122Z,5.55
2023-02-13T11:46:53.642Z,5.25
2023-02-13T11:49:24.127Z,5.32
2023-02-13T11:51:52.934Z,6.15
2023-02-13T11:54:28.443Z,5.05
2023-02-13T11:57:05.647Z,5.20
2023-02-13T11:59:40.605Z,5.15
2023-02-13T12:02:19.273Z,5.28
2023-02-13T12:04:48.588Z,5.30
2023-02-13T12:07:21.769Z,4.63
2023-02-13T12:09:52.808Z,5.07
2023-02-13T12:12:25.506Z,5.07
2023-02-13T12:14:52.154Z,5.10
2023-02-13T12:17:31.349Z,4.90
2023-02-13T12:20:00.467Z,5.32
2023-02-13T12:22:34.661Z,4.05
2023-02-13T12:25:28.022Z,4.55
2023-02-13T12:28:07.459Z,5.00
2023-02-13T12:30:45.739Z,4.40
2023-02-13T12:33:24.243Z,4.43
2023-02-13T12:35:59.669Z,4.70
2023-02-13T12:38:45.010Z,3.75
2023-02-13T12:41:19.225Z,4.88
2023-02-13T12:44:20.451Z,4.70
2023-02-13T12:46:54.812Z,4.57
2023-02-13T12:49:38.565Z,3.95
2023-02-13T12:52:24.811Z,4.65
2023-02-13T12:55:09.595Z,5.35
2023-02-13T12:57:45.973Z,4.50
2023-02-13T13:00:23.694Z,4.78
2023-02-13T13:03:01.420Z,4.80
2023-02-13T13:05:41.977Z,4.35
2023-02-13T13:08:23.770Z,4.85
2023-02-13T13:11:03.882Z,4.45
2023-02-13T13:13:45.912Z,4.95
2023-02-13T13:16:22.102Z,5.15
2023-02-13T13:18:59.020Z,5.20
2023-02-13T13:21:33.513Z,5.07
2023-02-13T13:24:06.426Z,4.25
2023-02-13T13:26:36.428Z,3.83
2023-02-13T13:29:07.425Z,5.32
2023-02-13T13:31:36.471Z,5.47
2023-02-13T13:34:07.375Z,5.13
2023-02-13T13:36:41.061Z,5.50
2023-02-13T13:41:52.042Z,5.85
2023-02-13T13:44:43.596Z,5.47
2023-02-13T13:47:20.455Z,5.70
2023-02-13T13:49:52.745Z,5.90
2023-02-13T13:52:23.133Z,6.07
2023-02-13T13:54:51.232Z,7.20
2023-02-13T13:57:18.510Z,6.43
2023-02-13T14:00:19.971Z,5.90
2023-02-13T14:02:48.533Z,6.05
2023-02-13T14:05:28.071Z,5.95
2023-02-13T14:07:56.810Z,5.32
2023-02-13T14:11:07.968Z,6.15
2023-02-13T14:13:38.099Z,5.35
2023-02-13T14:16:09.099Z,5.50
2023-02-13T14:18:36.605Z,5.85
2023-02-13T14:21:03.760Z,5.72
2023-02-13T14:23:34.787Z,5.65
2023-02-13T14:26:28.296Z,6.15
2023-02-13T14:29:17.136Z,6.13
2023-02-13T14:31:58.380Z,5.55
2023-02-13T14:34:29.353Z,6.70
2023-02-13T14:37:07.103Z,5.63
2023-02-13T14:39:34.853Z,5.50
2023-02-13T14:42:02.378Z,5.47
2023-02-13T14:44:35.397Z,5.93
2023-02-13T14:47:04.769Z,5.60
2023-02-13T14:49:35.087Z,6.38
2023-02-13T14:52:04.838Z,5.00
2023-02-13T14:54:34.607Z,5.75
2023-02-13T14:57:07.420Z,4.50
2023-02-13T14:59:38.332Z,5.27
2023-02-13T15:02:16.188Z,6.20
2023-02-13T15:04:45.498Z,5.93
2023-02-13T15:07:15.831Z,6.47
2023-02-13T15:09:48.342Z,5.80
2023-02-13T15:12:26.381Z,5.22
2023-02-13T15:14:54.213Z,6.32
2023-02-13T15:17:23.421Z,6.47
2023-02-13T15:19:52.726Z,6.38
2023-02-13T15:22:21.165Z,6.70
2023-02-13T15:24:49.516Z,5.88
2023-02-13T15:27:20.360Z,6.00
2023-02-13T15:30:00.611Z,5.15
2023-02-13T15:32:30.127Z,6.32
2023-02-13T15:34:56.652Z,5.97
2023-02-13T15:37:27.482Z,6.20
2023-02-13T15:39:54.131Z,5.15
2023-02-13T15:42:20.814Z,6.43
2023-02-13T15:44:49.406Z,6.40
2023-02-13T15:47:26.296Z,6.20
2023-02-13T15:49:53.038Z,6.53
2023-02-13T15:52:26.781Z,5.80
2023-02-13T15:57:21.524Z,6.43
2023-02-13T15:59:49.443Z,6.07
2023-02-13T16:02:19.549Z,5.75
2023-02-13T16:04:47.668Z,7.13
2023-02-13T16:07:14.346Z,7.82
2023-02-13T16:09:41.472Z,6.88
2023-02-13T16:12:19.446Z,7.20
2023-02-13T16:14:51.126Z,7.18
2023-02-13T16:17:26.302Z,5.95
2023-02-13T16:19:57.098Z,7.05
2023-02-13T16:22:32.722Z,6.22
2023-02-13T16:25:07.443Z,5.90
2023-02-13T16:27:34.481Z,6.00
2023-02-13T16:30:02.912Z,6.25
2023-02-13T16:32:33.138Z,6.03
2023-02-13T16:35:18.190Z,6.03
2023-02-13T16:37:52.729Z,5.38
2023-02-13T16:40:37.641Z,6.20
2023-02-13T16:43:35.764Z,5.80
2023-02-13T16:46:24.803Z,5.95
2023-02-13T16:49:21.318Z,5.10
2023-02-13T16:51:54.614Z,4.95
2023-02-13T16:54:30.430Z,3.97
2023-02-13T16:57:00.132Z,5.35
2023-02-13T16:59:30.574Z,5.32
2023-02-13T17:02:12.410Z,5.15
2023-02-13T17:04:41.890Z,5.03
2023-02-13T17:07:12.500Z,5.68
2023-02-13T17:09:38.890Z,5.15
2023-02-13T17:12:12.620Z,5.22
2023-02-13T17:17:09.962Z,4.32
2023-02-13T17:19:36.365Z,4.47
2023-02-13T17:22:04.484Z,4.65
2023-02-13T17:24:31.033Z,4.85
2023-02-13T17:26:57.436Z,4.47
2023-02-13T17:29:23.805Z,4.72
2023-02-13T17:31:55.256Z,5.25
2023-02-13T17:34:21.694Z,4.88
2023-02-13T17:36:48.040Z,4.80
2023-02-13T17:39:15.770Z,5.30
2023-02-13T17:41:42.161Z,6.05
2023-02-13T17:44:11.742Z,5.30
2023-02-13T17:46:38.105Z,5.28
2023-02-13T17:49:04.461Z,5.32
2023-02-13T17:51:31.794Z,5.72
2023-02-13T17:53:58.205Z,5.43
2023-02-13T17:56:25.970Z,6.78
2023-02-13T17:58:52.357Z,7.60
2023-02-13T18:01:18.788Z,6.53
2023-02-13T18:03:45.655Z,22.65
2023-02-13T18:06:12.374Z,11.73
2023-02-13T18:08:38.723Z,11.52
2023-02-13T18:11:09.951Z,7.75
2023-02-13T18:13:37.659Z,8.05
2023-02-13T18:16:08.641Z,7.20
2023-02-13T18:18:35.182Z,6.78
2023-02-13T18:21:01.549Z,7.03
2023-02-13T18:23:27.997Z,6.88
2023-02-13T18:25:54.423Z,6.25
2023-02-13T18:28:20.791Z,6.05
2023-02-13T18:30:48.569Z,6.95
2023-02-13T18:33:14.987Z,6.55
2023-02-13T18:35:41.340Z,6.47
2023-02-13T18:38:07.703Z,6.28
2023-02-13T18:40:34.251Z,6.43
2023-02-13T18:43:00.588Z,6.75
2023-02-13T18:45:27.364Z,6.18
2023-02-13T18:47:55.109Z,6.28
2023-02-13T18:50:21.562Z,6.82
2023-02-13T18:52:47.961Z,8.70
2023-02-13T18:55:14.476Z,12.45
2023-02-13T18:57:40.884Z,10.68
2023-02-13T19:00:08.530Z,12.38
2023-02-13T19:02:35.210Z,10.48
2023-02-13T19:05:03.077Z,11.85
2023-02-13T19:07:29.424Z,9.90
2023-02-13T19:09:56.022Z,11.90
2023-02-13T19:12:22.486Z,10.60
2023-02-13T19:14:48.858Z,10.25
2023-02-13T19:17:15.247Z,11.45
2023-02-13T19:19:44.014Z,9.98
2023-02-13T19:22:11.701Z,9.02
2023-02-13T19:24:38.116Z,9.48
2023-02-13T19:27:04.474Z,9.43
2023-02-13T19:29:30.847Z,8.27
2023-02-13T19:31:57.285Z,8.55
2023-02-13T19:34:23.685Z,8.98
2023-02-13T19:36:50.065Z,8.32
2023-02-13T19:39:18.248Z,8.60
2023-02-13T19:41:44.645Z,8.80
2023-02-13T19:44:11.702Z,12.75
2023-02-13T19:46:38.331Z,14.82
2023-02-13T19:49:05.291Z,13.18
2023-02-13T19:51:33.730Z,11.38
2023-02-13T19:54:02.227Z,12.20
2023-02-13T19:56:31.544Z,12.52
2023-02-13T19:58:57.959Z,10.40
2023-02-13T20:01:26.556Z,10.43
2023-02-13T20:03:53.844Z,10.23
2023-02-13T20:06:22.067Z,11.07
2023-02-13T20:08:48.933Z,9.88
2023-02-13T20:11:17.343Z,9.73
2023-02-13T20:13:45.053Z,9.23
2023-02-13T20:16:13.092Z,10.13
2023-02-13T20:18:39.886Z,11.90
2023-02-13T20:21:06.855Z,11.35
2023-02-13T20:23:33.289Z,12.35
2023-02-13T20:26:03.496Z,10.18
2023-02-13T20:28:29.877Z,9.98
2023-02-13T20:30:58.168Z,10.00
2023-02-13T20:33:24.830Z,9.15
2023-02-13T20:35:51.168Z,9.07
2023-02-13T20:38:17.553Z,10.40
2023-02-13T20:40:44.034Z,9.65
2023-02-13T20:43:10.385Z,10.80
2023-02-13T20:45:37.095Z,9.43
2023-02-13T20:48:04.875Z,9.48
2023-02-13T20:50:31.255Z,10.05
2023-02-13T20:52:58.474Z,10.88
2023-02-13T20:55:24.843Z,10.45
2023-02-13T20:57:51.234Z,9.68
2023-02-13T21:00:18.811Z,10.57
2023-02-13T21:02:45.358Z,8.80
2023-02-13T21:05:13.116Z,10.18
2023-02-13T21:07:39.567Z,9.38
2023-02-13T21:10:06.873Z,10.90
2023-02-13T21:12:33.258Z,12.07
2023-02-13T21:14:59.691Z,11.10
2023-02-13T21:17:26.086Z,11.93
2023-02-13T21:19:52.456Z,9.55
2023-02-13T21:22:20.205Z,9.63
2023-02-13T21:24:49.543Z,10.80
2023-02-13T21:27:15.932Z,10.82
2023-02-13T21:29:42.334Z,10.98
2023-02-13T21:32:08.784Z,11.13
2023-02-13T21:34:35.282Z,10.80
2023-02-13T21:37:01.695Z,11.35
2023-02-13T21:39:29.477Z,11.40
2023-02-13T21:41:55.916Z,12.45
2023-02-13T21:44:22.342Z,11.52
2023-02-13T21:46:48.822Z,11.10
2023-02-13T21:49:18.762Z,11.27
2023-02-13T21:51:45.680Z,12.15
2023-02-13T21:54:12.477Z,11.27
2023-02-13T21:56:41.689Z,11.38
2023-02-13T21:59:10.091Z,11.98
2023-02-13T22:01:37.333Z,12.55
2023-02-13T22:04:05.839Z,11.75
2023-02-13T22:06:34.597Z,13.50
2023-02-13T22:09:02.738Z,11.40
2023-02-13T22:11:29.545Z,11.45
2023-02-13T22:13:59.423Z,11.23
2023-02-13T22:16:25.838Z,13.02
2023-02-13T22:18:52.293Z,11.82
2023-02-13T22:21:20.908Z,12.82
2023-02-13T22:23:48.413Z,13.05
2023-02-13T22:26:16.721Z,13.25
2023-02-13T22:28:43.413Z,14.20
2023-02-13T22:31:13.415Z,12.55
2023-02-13T22:33:40.573Z,12.30
2023-02-13T22:36:07.954Z,12.52
2023-02-13T22:38:35.389Z,13.95
2023-02-13T22:41:06.495Z,13.27
2023-02-13T22:43:33.125Z,11.68
2023-02-13T22:46:02.706Z,14.70
2023-02-13T22:48:30.527Z,13.88
2023-02-13T22:50:57.336Z,14.00
2023-02-13T22:53:23.829Z,13.07
2023-02-13T22:55:50.179Z,13.00
2023-02-13T22:58:16.568Z,14.38
2023-02-13T23:00:42.919Z,12.40
2023-02-13T23:03:09.515Z,12.73
2023-02-13T23:05:39.667Z,13.75
2023-02-13T23:08:06.107Z,12.25
2023-02-13T23:10:32.696Z,14.13
2023-02-13T23:12:59.228Z,13.75
2023-02-13T23:15:25.605Z,13.13
2023-02-13T23:17:51.973Z,13.23
2023-02-13T23:20:19.694Z,12.48
2023-02-13T23:22:47.472Z,13.00
2023-02-13T23:25:14.509Z,13.55
2023-02-13T23:27:42.495Z,13.73
2023-02-13T23:30:10.933Z,13.68
2023-02-13T23:32:37.774Z,13.15
2023-02-13T23:35:04.951Z,15.00
2023-02-13T23:37:31.329Z,14.90
2023-02-13T23:39:59.037Z,14.20
2023-02-13T23:42:25.486Z,15.07
2023-02-13T23:44:51.947Z,12.63
2023-02-13T23:47:18.311Z,13.30
2023-02-13T23:49:44.682Z,16.85
2023-02-13T23:52:11.093Z,14.02
2023-02-13T23:54:37.605Z,15.13
2023-02-13T23:57:05.332Z,14.18
2023-02-13T23:59:31.902Z,15.05
